Georgia Highway — 7JCV — position and weather

sailwx.info

Track history (hours):
 
Tides and Currents Weather Stations Pressure Air Temp Water Temp Dewpoint Dewpoint Depression Visibility Wind Speed Wind Dir Waves Ship Positions

Georgia Highway

Last reported at 2014-Oct-31 19:33 UTC. Time now 2014-Oct-31 20:14 UTC.
Position N 38°19' W 027°13'.

Length 199 m; draft 9.2 m.

Type: Ship. MMSI: 432629000.

Date/timePositionNaut miles runAvg speedWind from/ knotsBaromVisibWave heightAir tempDewpointWater temp
2014-Oct-31 19:33N 38°19' W 027°13'1716.7
2014-Oct-31 18:33N 38°24' W 026°52'1717.3
2014-Oct-31 17:33N 38°33' W 026°34'1717.3
2014-Oct-31 16:34N 38°43' W 026°16'1717.1
2014-Oct-31 15:34N 38°53' W 025°58'1716.6
2014-Oct-31 14:33N 39°03' W 025°41'  
2014-Oct-28 18:33N 49°52' W 003°28'1918.2
2014-Oct-28 17:29N 49°58' W 002°60'2019.9
2014-Oct-28 16:30N 50°04' W 002°31'2020.6
2014-Oct-28 15:34N 50°11' W 002°02'2719.7
2014-Oct-28 14:13N 50°24' W 001°26'1218.5
2014-Oct-28 13:34N 50°30' W 001°10'1312.9
2014-Oct-28 12:33N 50°41' W 000°58'1110.7
2014-Oct-28 11:33N 50°46' W 001°13'8 8.5
2014-Oct-28 10:33N 50°52' W 001°22'3 3.2
2014-Oct-28 09:32N 50°54' W 001°26'0 0.0
2014-Oct-28 08:32N 50°54' W 001°26'0 0.0
2014-Oct-28 07:32N 50°54' W 001°26'0 0.0
2014-Oct-28 06:32N 50°54' W 001°26'0 0.0
2014-Oct-28 05:32N 50°54' W 001°26'0 0.0
2014-Oct-28 04:32N 50°54' W 001°26'0 0.0
2014-Oct-28 03:32N 50°54' W 001°26'0 0.0
2014-Oct-28 02:23N 50°54' W 001°26'0 0.0
2014-Oct-28 01:32N 50°54' W 001°26'0 0.0
2014-Oct-28 00:32N 50°54' W 001°26'0 0.0
2014-Oct-27 23:32N 50°54' W 001°26'0 0.0
2014-Oct-27 22:32N 50°54' W 001°26'0 0.0
2014-Oct-27 21:33N 50°54' W 001°26'2 1.8
2014-Oct-27 20:33N 50°53' W 001°24'0 0.0
2014-Oct-27 19:33N 50°53' W 001°24'0 0.0
2014-Oct-27 18:33N 50°53' W 001°24'0 0.0
2014-Oct-27 17:33N 50°53' W 001°24'0 0.0
2014-Oct-27 16:33N 50°53' W 001°24'0 0.0
2014-Oct-27 15:33N 50°53' W 001°24'0 0.0
2014-Oct-27 14:33N 50°53' W 001°24'0 0.0
2014-Oct-27 13:33N 50°53' W 001°24'0 0.0
2014-Oct-27 12:33N 50°53' W 001°24'0 0.0
2014-Oct-27 11:30N 50°53' W 001°24'0 0.0
2014-Oct-27 10:33N 50°53' W 001°24'0 0.0
2014-Oct-27 09:33N 50°53' W 001°24'0 0.0
2014-Oct-27 08:30N 50°53' W 001°24'0 0.0
2014-Oct-27 07:33N 50°53' W 001°24'4 3.5
2014-Oct-27 06:33N 50°51' W 001°20'10 9.9
2014-Oct-27 05:33N 50°45' W 001°06'10 9.9
2014-Oct-27 04:33N 50°37' W 000°57'2 2.3
2014-Oct-27 03:33N 50°36' W 000°54'3 2.7
2014-Oct-27 02:33N 50°36' W 000°49'1414.0
2014-Oct-27 01:33N 50°35' W 000°27'1615.6
2014-Oct-27 00:33N 50°32' W 000°03'1414.2
2014-Oct-26 23:34N 50°36' E 000°18'1313.0
2014-Oct-26 22:33N 50°40' E 000°37'1414.0
2014-Oct-26 21:33N 50°48' E 000°56'1615.9
2014-Oct-26 20:33N 50°58' E 001°15'1717.4
2014-Oct-26 19:34N 51°09' E 001°36'1616.4
2014-Oct-26 18:33N 51°21' E 001°53'1615.6
2014-Oct-26 17:33N 51°34' E 002°07'1514.7
2014-Oct-26 16:33N 51°45' E 002°23'1414.1
2014-Oct-26 15:33N 51°57' E 002°37'1814.0
2014-Oct-26 14:17N 52°10' E 002°57'1514.7
2014-Oct-26 13:16N 52°20' E 003°14'1216.0
2014-Oct-26 12:32N 52°30' E 003°23'1716.5
2014-Oct-26 11:31N 52°44' E 003°40'4515.0
2014-Oct-26 08:31N 53°18' E 004°29'1313.1
2014-Oct-26 07:33N 53°29' E 004°40'1312.7
2014-Oct-26 06:33N 53°33' E 004°59'1312.6
2014-Oct-26 05:33N 53°37' E 005°19'1413.8
2014-Oct-26 04:34N 53°42' E 005°42'1515.1
2014-Oct-26 03:34N 53°47' E 006°05'5114.8
2014-Oct-26 00:08N 53°60' E 007°29'813.1
2014-Oct-25 23:33N 53°57' E 007°41'1111.3
2014-Oct-25 22:33N 53°52' E 007°58'1312.7
2014-Oct-25 21:33N 53°44' E 008°15'1212.2
2014-Oct-25 20:33N 53°36' E 008°30'2 2.3
2014-Oct-25 19:33N 53°34' E 008°33'0 0.4
2014-Oct-25 18:31N 53°35' E 008°33'0 0.0
2014-Oct-25 17:31N 53°35' E 008°33'0 0.0
2014-Oct-25 16:31N 53°35' E 008°33'0 0.0
2014-Oct-25 15:31N 53°35' E 008°33'0 0.0
2014-Oct-25 14:31N 53°35' E 008°33'0 0.0
2014-Oct-25 13:31N 53°35' E 008°33'0 0.0
2014-Oct-25 12:31N 53°35' E 008°33'0 0.0
2014-Oct-25 11:31N 53°35' E 008°33'0 0.0
2014-Oct-25 10:31N 53°35' E 008°33'0 0.0
2014-Oct-25 09:31N 53°35' E 008°33'0 0.0
2014-Oct-25 08:31N 53°35' E 008°33'0 0.0
2014-Oct-25 07:31N 53°35' E 008°33'0 0.0
2014-Oct-25 06:31N 53°35' E 008°33'0 0.0
2014-Oct-25 05:31N 53°35' E 008°33'0 0.0
2014-Oct-25 04:31N 53°35' E 008°33'0 0.0
2014-Oct-25 03:31N 53°35' E 008°33'0 0.0
2014-Oct-25 02:31N 53°35' E 008°33'0 0.0
2014-Oct-25 01:31N 53°35' E 008°33'0 0.0
2014-Oct-25 00:31N 53°35' E 008°33'0 0.0
2014-Oct-24 23:31N 53°35' E 008°33'0 0.0
2014-Oct-24 22:28N 53°35' E 008°33'0 0.0
2014-Oct-24 21:31N 53°35' E 008°33'0 0.0
2014-Oct-24 20:31N 53°35' E 008°33'0 0.0
2014-Oct-24 19:31N 53°35' E 008°33'0 0.0
2014-Oct-24 18:31N 53°35' E 008°33'0 0.0
2014-Oct-24 17:31N 53°35' E 008°33'0 0.0
2014-Oct-24 16:31N 53°35' E 008°33'0 0.0
2014-Oct-24 15:31N 53°35' E 008°33'0 0.0
2014-Oct-24 14:31N 53°35' E 008°33'0 0.0
2014-Oct-24 13:31N 53°35' E 008°33'0 0.0
2014-Oct-24 12:31N 53°35' E 008°33'0 0.0
2014-Oct-24 11:32N 53°35' E 008°33'0 0.0
2014-Oct-24 10:31N 53°35' E 008°33'0 0.0
2014-Oct-24 09:31N 53°35' E 008°33'0 0.0
2014-Oct-24 08:31N 53°35' E 008°33'0 0.0
2014-Oct-24 07:31N 53°35' E 008°33'0 0.0
2014-Oct-24 06:31N 53°35' E 008°33'0 0.0
2014-Oct-24 05:31N 53°35' E 008°33'0 0.0
2014-Oct-24 04:31N 53°35' E 008°33'0 0.0
2014-Oct-24 03:31N 53°35' E 008°33'0 0.0
2014-Oct-24 02:31N 53°35' E 008°33'0 0.4
2014-Oct-24 01:33N 53°34' E 008°33'5 4.7
2014-Oct-24 00:33N 53°38' E 008°28'1615.8
2014-Oct-23 23:33N 53°48' E 008°08'4715.6
2014-Oct-23 20:31N 53°47' E 006°48'1919.7
2014-Oct-23 19:32N 53°43' E 006°16'1919.6
2014-Oct-23 18:33N 53°37' E 005°45'2019.8
2014-Oct-23 17:33N 53°31' E 005°13'2020.0
2014-Oct-23 16:33N 53°23' E 004°42'2120.1
2014-Oct-23 15:31N 53°05' E 004°26'1919.8
2014-Oct-23 14:33N 52°48' E 004°11'2019.7
2014-Oct-23 13:33N 52°33' E 003°49'2119.6
2014-Oct-23 12:30N 52°19' E 003°25'1919.0
2014-Oct-23 11:30N 52°05' E 003°04'1818.4
2014-Oct-23 10:33N 51°52' E 002°45'1716.6
2014-Oct-23 09:33N 51°35' E 002°43'1313.3
2014-Oct-23 08:34N 51°22' E 002°46'1414.3
2014-Oct-23 07:34N 51°24' E 003°09'4 4.4
2014-Oct-23 06:32N 51°20' E 003°13'0 0.1
2014-Oct-23 05:33N 51°20' E 003°13'2 2.1
2014-Oct-23 04:33N 51°18' E 003°14'0 0.0
2014-Oct-23 03:33N 51°18' E 003°14'0 0.0
2014-Oct-23 02:33N 51°18' E 003°14'0 0.0
2014-Oct-23 01:30N 51°18' E 003°14'0 0.0
2014-Oct-23 00:27N 51°18' E 003°14'0 0.0
2014-Oct-22 23:30N 51°18' E 003°14'0 0.0
2014-Oct-22 22:33N 51°18' E 003°14'0 0.0
2014-Oct-22 21:33N 51°18' E 003°14'0 0.0
2014-Oct-22 20:33N 51°18' E 003°14'0 0.0
2014-Oct-22 19:33N 51°18' E 003°14'0 0.0
2014-Oct-22 18:21N 51°18' E 003°14'0 0.0
2014-Oct-22 17:33N 51°18' E 003°14'1 0.6
2014-Oct-22 16:33N 51°19' E 003°14'1 1.5
2014-Oct-22 15:33N 51°20' E 003°13'1 1.5
2014-Oct-22 14:33N 51°21' E 003°12'1514.2
2014-Oct-22 13:32N 51°25' E 002°50'1111.1
2014-Oct-22 12:32N 51°22' E 002°33'9 9.6
2014-Oct-22 11:33N 51°20' E 002°18'1110.7
2014-Oct-22 10:34N 51°23' E 002°34'1111.4
2014-Oct-22 09:34N 51°19' E 002°17'1413.8
2014-Oct-22 08:34N 51°23' E 002°38'8 7.5
2014-Oct-22 07:34N 51°21' E 002°27'1414.1
2014-Oct-22 06:34N 51°14' E 002°08'1514.5
2014-Oct-22 05:34N 51°06' E 001°48'1413.8
2014-Oct-22 04:34N 50°56' E 001°33'1312.6
2014-Oct-22 03:33N 50°45' E 001°23'  
Track history (hours):
 
Tides and Currents Weather Stations Pressure Air Temp Water Temp Dewpoint Dewpoint Depression Visibility Wind Speed Wind Dir Waves Ship Positions

Georgia Highway

Last reported at 2014-Oct-31 19:33 UTC. Time now 2014-Oct-31 20:14 UTC.
Position N 38°19' W 027°13'.

Length 199 m; draft 9.2 m.

Type: Ship. MMSI: 432629000.

Date/timePositionNaut miles runAvg speedWind from/ knotsBaromVisibWave heightAir tempDewpointWater temp
2014-Oct-31 19:33N 38°19' W 027°13'1716.7
2014-Oct-31 18:33N 38°24' W 026°52'1717.3
2014-Oct-31 17:33N 38°33' W 026°34'1717.3
2014-Oct-31 16:34N 38°43' W 026°16'1717.1
2014-Oct-31 15:34N 38°53' W 025°58'1716.6
2014-Oct-31 14:33N 39°03' W 025°41'  
2014-Oct-28 18:33N 49°52' W 003°28'1918.2
2014-Oct-28 17:29N 49°58' W 002°60'2019.9
2014-Oct-28 16:30N 50°04' W 002°31'2020.6
2014-Oct-28 15:34N 50°11' W 002°02'2719.7
2014-Oct-28 14:13N 50°24' W 001°26'1218.5
2014-Oct-28 13:34N 50°30' W 001°10'1312.9
2014-Oct-28 12:33N 50°41' W 000°58'1110.7
2014-Oct-28 11:33N 50°46' W 001°13'8 8.5
2014-Oct-28 10:33N 50°52' W 001°22'3 3.2
2014-Oct-28 09:32N 50°54' W 001°26'0 0.0
2014-Oct-28 08:32N 50°54' W 001°26'0 0.0
2014-Oct-28 07:32N 50°54' W 001°26'0 0.0
2014-Oct-28 06:32N 50°54' W 001°26'0 0.0
2014-Oct-28 05:32N 50°54' W 001°26'0 0.0
2014-Oct-28 04:32N 50°54' W 001°26'0 0.0
2014-Oct-28 03:32N 50°54' W 001°26'0 0.0
2014-Oct-28 02:23N 50°54' W 001°26'0 0.0
2014-Oct-28 01:32N 50°54' W 001°26'0 0.0
2014-Oct-28 00:32N 50°54' W 001°26'0 0.0
2014-Oct-27 23:32N 50°54' W 001°26'0 0.0
2014-Oct-27 22:32N 50°54' W 001°26'0 0.0
2014-Oct-27 21:33N 50°54' W 001°26'2 1.8
2014-Oct-27 20:33N 50°53' W 001°24'0 0.0
2014-Oct-27 19:33N 50°53' W 001°24'0 0.0
2014-Oct-27 18:33N 50°53' W 001°24'0 0.0
2014-Oct-27 17:33N 50°53' W 001°24'0 0.0
2014-Oct-27 16:33N 50°53' W 001°24'0 0.0
2014-Oct-27 15:33N 50°53' W 001°24'0 0.0
2014-Oct-27 14:33N 50°53' W 001°24'0 0.0
2014-Oct-27 13:33N 50°53' W 001°24'0 0.0
2014-Oct-27 12:33N 50°53' W 001°24'0 0.0
2014-Oct-27 11:30N 50°53' W 001°24'0 0.0
2014-Oct-27 10:33N 50°53' W 001°24'0 0.0
2014-Oct-27 09:33N 50°53' W 001°24'0 0.0
2014-Oct-27 08:30N 50°53' W 001°24'0 0.0
2014-Oct-27 07:33N 50°53' W 001°24'4 3.5
2014-Oct-27 06:33N 50°51' W 001°20'10 9.9
2014-Oct-27 05:33N 50°45' W 001°06'10 9.9
2014-Oct-27 04:33N 50°37' W 000°57'2 2.3
2014-Oct-27 03:33N 50°36' W 000°54'3 2.7
2014-Oct-27 02:33N 50°36' W 000°49'1414.0
2014-Oct-27 01:33N 50°35' W 000°27'1615.6
2014-Oct-27 00:33N 50°32' W 000°03'1414.2
2014-Oct-26 23:34N 50°36' E 000°18'1313.0
2014-Oct-26 22:33N 50°40' E 000°37'1414.0
2014-Oct-26 21:33N 50°48' E 000°56'1615.9
2014-Oct-26 20:33N 50°58' E 001°15'1717.4
2014-Oct-26 19:34N 51°09' E 001°36'1616.4
2014-Oct-26 18:33N 51°21' E 001°53'1615.6
2014-Oct-26 17:33N 51°34' E 002°07'1514.7
2014-Oct-26 16:33N 51°45' E 002°23'1414.1
2014-Oct-26 15:33N 51°57' E 002°37'1814.0
2014-Oct-26 14:17N 52°10' E 002°57'1514.7
2014-Oct-26 13:16N 52°20' E 003°14'1216.0
2014-Oct-26 12:32N 52°30' E 003°23'1716.5
2014-Oct-26 11:31N 52°44' E 003°40'4515.0
2014-Oct-26 08:31N 53°18' E 004°29'1313.1
2014-Oct-26 07:33N 53°29' E 004°40'1312.7
2014-Oct-26 06:33N 53°33' E 004°59'1312.6
2014-Oct-26 05:33N 53°37' E 005°19'1413.8
2014-Oct-26 04:34N 53°42' E 005°42'1515.1
2014-Oct-26 03:34N 53°47' E 006°05'5114.8
2014-Oct-26 00:08N 53°60' E 007°29'813.1
2014-Oct-25 23:33N 53°57' E 007°41'1111.3
2014-Oct-25 22:33N 53°52' E 007°58'1312.7
2014-Oct-25 21:33N 53°44' E 008°15'1212.2
2014-Oct-25 20:33N 53°36' E 008°30'2 2.3
2014-Oct-25 19:33N 53°34' E 008°33'0 0.4
2014-Oct-25 18:31N 53°35' E 008°33'0 0.0
2014-Oct-25 17:31N 53°35' E 008°33'0 0.0
2014-Oct-25 16:31N 53°35' E 008°33'0 0.0
2014-Oct-25 15:31N 53°35' E 008°33'0 0.0
2014-Oct-25 14:31N 53°35' E 008°33'0 0.0
2014-Oct-25 13:31N 53°35' E 008°33'0 0.0
2014-Oct-25 12:31N 53°35' E 008°33'0 0.0
2014-Oct-25 11:31N 53°35' E 008°33'0 0.0
2014-Oct-25 10:31N 53°35' E 008°33'0 0.0
2014-Oct-25 09:31N 53°35' E 008°33'0 0.0
2014-Oct-25 08:31N 53°35' E 008°33'0 0.0
2014-Oct-25 07:31N 53°35' E 008°33'0 0.0
2014-Oct-25 06:31N 53°35' E 008°33'0 0.0
2014-Oct-25 05:31N 53°35' E 008°33'0 0.0
2014-Oct-25 04:31N 53°35' E 008°33'0 0.0
2014-Oct-25 03:31N 53°35' E 008°33'0 0.0
2014-Oct-25 02:31N 53°35' E 008°33'0 0.0
2014-Oct-25 01:31N 53°35' E 008°33'0 0.0
2014-Oct-25 00:31N 53°35' E 008°33'0 0.0
2014-Oct-24 23:31N 53°35' E 008°33'0 0.0
2014-Oct-24 22:28N 53°35' E 008°33'0 0.0
2014-Oct-24 21:31N 53°35' E 008°33'0 0.0
2014-Oct-24 20:31N 53°35' E 008°33'0 0.0
2014-Oct-24 19:31N 53°35' E 008°33'0 0.0
2014-Oct-24 18:31N 53°35' E 008°33'0 0.0
2014-Oct-24 17:31N 53°35' E 008°33'0 0.0
2014-Oct-24 16:31N 53°35' E 008°33'0 0.0
2014-Oct-24 15:31N 53°35' E 008°33'0 0.0
2014-Oct-24 14:31N 53°35' E 008°33'0 0.0
2014-Oct-24 13:31N 53°35' E 008°33'0 0.0
2014-Oct-24 12:31N 53°35' E 008°33'0 0.0
2014-Oct-24 11:32N 53°35' E 008°33'0 0.0
2014-Oct-24 10:31N 53°35' E 008°33'0 0.0
2014-Oct-24 09:31N 53°35' E 008°33'0 0.0
2014-Oct-24 08:31N 53°35' E 008°33'0 0.0
2014-Oct-24 07:31N 53°35' E 008°33'0 0.0
2014-Oct-24 06:31N 53°35' E 008°33'0 0.0
2014-Oct-24 05:31N 53°35' E 008°33'0 0.0
2014-Oct-24 04:31N 53°35' E 008°33'0 0.0
2014-Oct-24 03:31N 53°35' E 008°33'0 0.0
2014-Oct-24 02:31N 53°35' E 008°33'0 0.4
2014-Oct-24 01:33N 53°34' E 008°33'5 4.7
2014-Oct-24 00:33N 53°38' E 008°28'1615.8
2014-Oct-23 23:33N 53°48' E 008°08'4715.6
2014-Oct-23 20:31N 53°47' E 006°48'1919.7
2014-Oct-23 19:32N 53°43' E 006°16'1919.6
2014-Oct-23 18:33N 53°37' E 005°45'2019.8
2014-Oct-23 17:33N 53°31' E 005°13'2020.0
2014-Oct-23 16:33N 53°23' E 004°42'2120.1
2014-Oct-23 15:31N 53°05' E 004°26'1919.8
2014-Oct-23 14:33N 52°48' E 004°11'2019.7
2014-Oct-23 13:33N 52°33' E 003°49'2119.6
2014-Oct-23 12:30N 52°19' E 003°25'1919.0
2014-Oct-23 11:30N 52°05' E 003°04'1818.4
2014-Oct-23 10:33N 51°52' E 002°45'1716.6
2014-Oct-23 09:33N 51°35' E 002°43'1313.3
2014-Oct-23 08:34N 51°22' E 002°46'1414.3
2014-Oct-23 07:34N 51°24' E 003°09'4 4.4
2014-Oct-23 06:32N 51°20' E 003°13'0 0.1
2014-Oct-23 05:33N 51°20' E 003°13'2 2.1
2014-Oct-23 04:33N 51°18' E 003°14'0 0.0
2014-Oct-23 03:33N 51°18' E 003°14'0 0.0
2014-Oct-23 02:33N 51°18' E 003°14'0 0.0
2014-Oct-23 01:30N 51°18' E 003°14'0 0.0
2014-Oct-23 00:27N 51°18' E 003°14'0 0.0
2014-Oct-22 23:30N 51°18' E 003°14'0 0.0
2014-Oct-22 22:33N 51°18' E 003°14'0 0.0
2014-Oct-22 21:33N 51°18' E 003°14'0 0.0
2014-Oct-22 20:33N 51°18' E 003°14'0 0.0
2014-Oct-22 19:33N 51°18' E 003°14'0 0.0
2014-Oct-22 18:21N 51°18' E 003°14'0 0.0
2014-Oct-22 17:33N 51°18' E 003°14'1 0.6
2014-Oct-22 16:33N 51°19' E 003°14'1 1.5
2014-Oct-22 15:33N 51°20' E 003°13'1 1.5
2014-Oct-22 14:33N 51°21' E 003°12'1514.2
2014-Oct-22 13:32N 51°25' E 002°50'1111.1
2014-Oct-22 12:32N 51°22' E 002°33'9 9.6
2014-Oct-22 11:33N 51°20' E 002°18'1110.7
2014-Oct-22 10:34N 51°23' E 002°34'1111.4
2014-Oct-22 09:34N 51°19' E 002°17'1413.8
2014-Oct-22 08:34N 51°23' E 002°38'8 7.5
2014-Oct-22 07:34N 51°21' E 002°27'1414.1
2014-Oct-22 06:34N 51°14' E 002°08'1514.5
2014-Oct-22 05:34N 51°06' E 001°48'1413.8
2014-Oct-22 04:34N 50°56' E 001°33'1312.6
2014-Oct-22 03:33N 50°45' E 001°23'  

Dump ship's entire track history